Time;durP1;ratioP1;P1;durP2;ratioP2;P2;SDS_P1;SDS_P2;PMS_P1;PMS_P2;Temp;Humidity;BMP_temperature;BMP_pressure;BME280_temperature;BME280_humidity;BME280_pressure;Samples;Min_cycle;Max_cycle;Signal;HPM_P1;HPM_P2
2022/05/12 00:02:04;;;;;;;11.32;2.38;;;11.20;99.90;;;;;;5047650;28;20127;-53
2022/05/12 00:04:31;;;;;;;10.48;2.00;;;11.20;99.90;;;;;;5051089;28;20053;-54
2022/05/12 00:06:58;;;;;;;7.80;2.78;;;11.10;99.90;;;;;;5051072;28;20498;-55
2022/05/12 00:09:26;;;;;;;13.13;2.75;;;11.10;99.90;;;;;;5048607;28;20041;-54
2022/05/12 00:11:53;;;;;;;11.55;3.30;;;11.20;99.90;;;;;;5051124;28;20128;-52
2022/05/12 00:14:20;;;;;;;7.40;2.00;;;11.20;99.90;;;;;;5051879;28;20132;-55
2022/05/12 00:16:47;;;;;;;11.95;2.78;;;11.20;99.90;;;;;;5050644;28;20091;-55
2022/05/12 00:19:13;;;;;;;6.70;2.78;;;11.10;99.90;;;;;;5051470;28;20124;-56
2022/05/12 00:21:40;;;;;;;4.03;2.10;;;11.10;99.90;;;;;;5050659;28;20136;-52
2022/05/12 00:24:07;;;;;;;13.57;2.65;;;11.10;99.90;;;;;;5051872;28;20120;-55
2022/05/12 00:26:36;;;;;;;13.10;2.53;;;11.10;99.90;;;;;;5051215;28;20088;-56
2022/05/12 00:29:05;;;;;;;13.53;2.80;;;11.10;99.90;;;;;;4697894;27;10001268;-55
2022/05/12 00:31:33;;;;;;;11.32;2.63;;;11.00;99.90;;;;;;5044639;28;20346;-56
2022/05/12 00:34:00;;;;;;;15.77;3.22;;;11.00;99.90;;;;;;5050449;28;20045;-54
2022/05/12 00:36:27;;;;;;;12.65;2.58;;;11.00;99.90;;;;;;5050134;28;20131;-55
2022/05/12 00:38:54;;;;;;;7.78;2.75;;;10.90;99.90;;;;;;5049911;28;20047;-55
2022/05/12 00:41:20;;;;;;;17.40;4.45;;;10.90;99.90;;;;;;5050359;28;20080;-55
2022/05/12 00:43:49;;;;;;;13.45;3.72;;;10.90;99.90;;;;;;5049236;28;20094;-52
2022/05/12 00:46:21;;;;;;;19.98;3.13;;;10.90;99.90;;;;;;5049337;28;20087;-54
2022/05/12 00:48:48;;;;;;;12.52;3.15;;;10.90;99.90;;;;;;5049605;28;20143;-53
2022/05/12 00:51:23;;;;;;;12.35;2.53;;;10.90;99.90;;;;;;5049131;28;20144;-54
2022/05/12 00:53:50;;;;;;;11.10;2.45;;;10.80;99.90;;;;;;5033330;28;20558;-53
2022/05/12 00:56:18;;;;;;;10.88;2.47;;;10.80;99.90;;;;;;5046920;28;20238;-54
2022/05/12 00:58:45;;;;;;;10.63;2.08;;;10.80;99.90;;;;;;5048895;28;20069;-52
2022/05/12 01:01:12;;;;;;;11.23;3.28;;;10.80;99.90;;;;;;5049078;28;20135;-52
2022/05/12 01:03:40;;;;;;;9.70;2.13;;;10.80;99.90;;;;;;5049983;28;20059;-54
2022/05/12 01:06:07;;;;;;;8.38;2.58;;;10.80;99.90;;;;;;5048778;28;20194;-55
2022/05/12 01:08:34;;;;;;;15.48;2.75;;;10.80;99.90;;;;;;5047590;28;20041;-53
2022/05/12 01:11:07;;;;;;;9.75;1.83;;;10.80;99.90;;;;;;5048389;28;20148;-56
2022/05/12 01:13:34;;;;;;;7.63;2.60;;;10.70;99.90;;;;;;5047991;28;20076;-54
2022/05/12 01:16:02;;;;;;;21.92;2.72;;;10.70;99.90;;;;;;5048518;28;20140;-54
2022/05/12 01:18:30;;;;;;;11.25;3.15;;;10.60;99.90;;;;;;5046700;28;20052;-54
2022/05/12 01:20:57;;;;;;;9.38;1.90;;;10.60;99.90;;;;;;5049138;28;20077;-55
2022/05/12 01:23:28;;;;;;;5.95;2.67;;;10.60;99.90;;;;;;5049849;28;20488;-56
2022/05/12 01:26:06;;;;;;;8.40;3.88;;;10.50;99.90;;;;;;5048652;28;20055;-52
2022/05/12 01:28:33;;;;;;;12.38;2.70;;;10.50;99.90;;;;;;5049899;28;20041;-53
2022/05/12 01:31:00;;;;;;;4.57;2.30;;;10.50;99.90;;;;;;5047929;28;20507;-54
2022/05/12 01:33:27;;;;;;;6.32;2.40;;;10.40;99.90;;;;;;5048607;28;20056;-55
2022/05/12 01:35:54;;;;;;;7.05;2.53;;;10.40;99.90;;;;;;5047965;28;20461;-54
2022/05/12 01:38:20;;;;;;;5.68;1.80;;;10.40;99.90;;;;;;5047737;28;20207;-53
2022/05/12 01:40:47;;;;;;;4.53;1.80;;;10.40;99.90;;;;;;5048888;28;20131;-54
2022/05/12 01:43:14;;;;;;;6.07;2.10;;;10.30;99.90;;;;;;5049400;28;20087;-53
2022/05/12 01:45:41;;;;;;;13.68;2.75;;;10.30;99.90;;;;;;5049309;28;20149;-54
2022/05/12 01:48:09;;;;;;;9.45;2.40;;;10.20;99.90;;;;;;5049141;28;20083;-54
2022/05/12 01:50:40;;;;;;;8.88;2.85;;;10.20;99.90;;;;;;5048600;28;20263;-56
2022/05/12 01:53:09;;;;;;;10.52;2.15;;;10.20;99.90;;;;;;5047713;28;20072;-53
2022/05/12 01:55:36;;;;;;;6.28;2.50;;;10.10;99.90;;;;;;5040802;28;20060;-52
2022/05/12 01:58:03;;;;;;;11.43;1.95;;;10.10;99.90;;;;;;5045257;28;20496;-54
2022/05/12 02:00:31;;;;;;;10.82;2.58;;;10.10;99.90;;;;;;5047946;28;20118;-53
2022/05/12 02:03:00;;;;;;;6.70;2.55;;;10.00;99.90;;;;;;5047412;28;20128;-50
2022/05/12 02:05:29;;;;;;;8.88;2.00;;;10.00;99.90;;;;;;5048691;28;20140;-48
2022/05/12 02:07:55;;;;;;;4.63;2.17;;;10.00;99.90;;;;;;5048880;28;20127;-53
2022/05/12 02:10:28;;;;;;;17.10;2.20;;;10.00;99.90;;;;;;5048957;28;20091;-54
2022/05/12 02:12:55;;;;;;;16.95;2.65;;;10.00;99.90;;;;;;5043698;28;20137;-51
2022/05/12 02:15:22;;;;;;;10.80;2.60;;;10.00;99.90;;;;;;5049109;28;20080;-60
2022/05/12 02:17:49;;;;;;;7.20;1.85;;;10.10;99.90;;;;;;5048461;28;20102;-53
2022/05/12 02:20:17;;;;;;;9.60;2.47;;;10.00;99.90;;;;;;5048577;28;20048;-49
2022/05/12 02:22:44;;;;;;;13.05;2.47;;;10.00;99.90;;;;;;5048387;28;20080;-50
2022/05/12 02:25:11;;;;;;;6.07;1.75;;;10.00;99.90;;;;;;5048539;28;20072;-50
2022/05/12 02:27:42;;;;;;;10.18;2.05;;;9.90;99.90;;;;;;5047840;28;20045;-52
2022/05/12 02:30:11;;;;;;;11.60;2.85;;;9.90;99.90;;;;;;5042343;28;20045;-49
2022/05/12 02:32:37;;;;;;;11.90;2.38;;;9.90;99.90;;;;;;5048415;28;20104;-50
2022/05/12 02:35:05;;;;;;;10.77;1.95;;;9.80;99.90;;;;;;5048395;28;20599;-53
2022/05/12 02:37:32;;;;;;;14.70;3.22;;;9.80;99.90;;;;;;5048171;28;20063;-54
2022/05/12 02:39:59;;;;;;;7.80;1.70;;;9.80;99.90;;;;;;5048261;28;20466;-54
2022/05/12 02:42:26;;;;;;;14.18;2.78;;;9.80;99.90;;;;;;5046686;28;20188;-53
2022/05/12 02:44:53;;;;;;;9.55;3.22;;;9.80;99.90;;;;;;5048227;28;20048;-54
2022/05/12 02:47:19;;;;;;;16.67;3.15;;;9.70;99.90;;;;;;5048047;28;20063;-53
2022/05/12 02:49:46;;;;;;;5.32;1.88;;;9.70;99.90;;;;;;5047661;28;20080;-54
2022/05/12 02:52:13;;;;;;;9.68;2.17;;;9.70;99.90;;;;;;5047758;28;20571;-54
2022/05/12 02:54:39;;;;;;;7.88;1.73;;;9.60;99.90;;;;;;5047997;28;20515;-60
2022/05/12 02:57:06;;;;;;;11.13;2.22;;;9.60;99.90;;;;;;5047966;28;20151;-58
2022/05/12 02:59:33;;;;;;;5.55;2.00;;;9.60;99.90;;;;;;5047895;28;20121;-55
2022/05/12 03:02:00;;;;;;;9.85;2.40;;;9.60;99.90;;;;;;5047833;28;20113;-53
2022/05/12 03:04:27;;;;;;;6.18;1.95;;;9.60;99.90;;;;;;5047598;28;20122;-53
2022/05/12 03:06:54;;;;;;;10.75;1.70;;;9.60;99.90;;;;;;5047925;28;20076;-53
2022/05/12 03:09:21;;;;;;;13.52;2.15;;;9.60;99.90;;;;;;5047218;28;20079;-55
2022/05/12 03:11:48;;;;;;;7.15;2.13;;;9.60;99.90;;;;;;5046129;28;20555;-56
2022/05/12 03:14:15;;;;;;;8.55;2.13;;;9.60;99.90;;;;;;5047419;28;20099;-53
2022/05/12 03:16:42;;;;;;;10.18;2.78;;;9.60;99.90;;;;;;5047881;28;20064;-56
2022/05/12 03:19:09;;;;;;;7.97;2.22;;;9.50;99.90;;;;;;5046958;28;20497;-52
2022/05/12 03:21:36;;;;;;;10.20;2.25;;;9.50;99.90;;;;;;5029880;28;20099;-55
2022/05/12 03:24:04;;;;;;;8.07;1.70;;;9.60;99.90;;;;;;5047524;28;20127;-54
2022/05/12 03:26:31;;;;;;;5.28;1.55;;;9.50;99.90;;;;;;5047468;28;20091;-56
2022/05/12 03:28:57;;;;;;;12.82;2.70;;;9.50;99.90;;;;;;5047229;28;20388;-54
2022/05/12 03:31:24;;;;;;;11.85;1.95;;;9.50;99.90;;;;;;5047068;28;20128;-55
2022/05/12 03:33:51;;;;;;;5.55;1.90;;;9.50;99.90;;;;;;5047412;28;20483;-56
2022/05/12 03:36:18;;;;;;;8.73;2.13;;;9.50;99.90;;;;;;5047473;28;20536;-55
2022/05/12 03:38:45;;;;;;;6.50;1.77;;;9.50;99.90;;;;;;5047229;28;20124;-54
2022/05/12 03:41:11;;;;;;;13.05;3.65;;;9.50;99.90;;;;;;5046773;28;20084;-54
2022/05/12 03:46:27;;;;;;;11.60;2.72;;;9.40;99.90;;;;;;5047253;28;20075;-54
2022/05/12 03:48:54;;;;;;;10.77;1.88;;;9.50;99.90;;;;;;5047076;28;20116;-52
2022/05/12 03:51:21;;;;;;;7.88;2.05;;;9.50;99.90;;;;;;5046212;28;20087;-55
2022/05/12 03:53:48;;;;;;;8.98;2.00;;;9.50;99.90;;;;;;5047046;28;20053;-54
2022/05/12 03:56:15;;;;;;;12.30;3.55;;;9.40;99.90;;;;;;5045537;28;20084;-54
2022/05/12 03:58:42;;;;;;;13.73;1.98;;;9.40;99.90;;;;;;5046908;28;20076;-55
2022/05/12 04:01:09;;;;;;;7.28;2.15;;;9.40;99.90;;;;;;5046863;28;20098;-56
2022/05/12 04:03:36;;;;;;;12.38;2.40;;;9.40;99.90;;;;;;5042979;28;20083;-54
2022/05/12 04:06:05;;;;;;;9.68;2.35;;;9.40;99.90;;;;;;5046683;28;20512;-52
2022/05/12 04:08:32;;;;;;;11.73;2.58;;;9.40;99.90;;;;;;5046072;28;20816;-55
2022/05/12 04:11:00;;;;;;;6.88;1.85;;;9.40;99.90;;;;;;5045359;28;20072;-54
2022/05/12 04:13:27;;;;;;;7.70;1.80;;;9.30;99.90;;;;;;5047173;28;20128;-55
2022/05/12 04:15:53;;;;;;;12.23;2.33;;;9.40;99.90;;;;;;5046907;28;20135;-52
2022/05/12 04:18:20;;;;;;;15.77;2.50;;;9.40;99.90;;;;;;5047445;28;20152;-56
2022/05/12 04:20:47;;;;;;;7.38;2.08;;;9.30;99.90;;;;;;5046123;28;20064;-54
2022/05/12 04:23:14;;;;;;;10.60;2.20;;;9.30;99.90;;;;;;5046996;28;20072;-55
2022/05/12 04:25:41;;;;;;;12.70;2.15;;;9.30;99.90;;;;;;5046495;28;20057;-59
2022/05/12 04:28:08;;;;;;;5.03;1.98;;;9.30;99.90;;;;;;5046920;28;20484;-55
2022/05/12 04:30:36;;;;;;;11.65;3.22;;;9.30;99.90;;;;;;5045449;28;20120;-55
2022/05/12 04:35:48;;;;;;;9.63;2.00;;;9.30;99.90;;;;;;5046593;28;20083;-51
2022/05/12 04:38:14;;;;;;;14.05;3.13;;;9.30;99.90;;;;;;5046816;28;20120;-55
2022/05/12 04:40:41;;;;;;;15.52;2.33;;;9.30;99.90;;;;;;5046808;28;20094;-52
2022/05/12 04:43:08;;;;;;;9.20;1.90;;;9.30;99.90;;;;;;5046057;28;20584;-52
2022/05/12 04:45:35;;;;;;;8.75;2.08;;;9.30;99.90;;;;;;5046934;28;20073;-55
2022/05/12 04:48:03;;;;;;;6.22;1.63;;;9.30;99.90;;;;;;5046497;28;20053;-55
2022/05/12 04:50:33;;;;;;;10.35;2.72;;;9.30;99.90;;;;;;5048967;28;20136;-54
2022/05/12 04:53:00;;;;;;;10.93;1.95;;;9.30;99.90;;;;;;5050024;28;20550;-54
2022/05/12 04:55:27;;;;;;;6.75;2.17;;;9.30;99.90;;;;;;5050214;28;20098;-55
2022/05/12 04:57:56;;;;;;;17.42;3.53;;;9.30;99.90;;;;;;5050333;28;20450;-55
2022/05/12 05:00:26;;;;;;;14.55;2.63;;;9.40;99.90;;;;;;5049877;28;20068;-52
2022/05/12 05:02:52;;;;;;;7.45;1.80;;;9.40;99.90;;;;;;5048649;28;20203;-54
2022/05/12 05:05:19;;;;;;;9.55;2.58;;;9.40;99.90;;;;;;5049966;28;20061;-53
2022/05/12 05:07:46;;;;;;;11.57;4.15;;;9.40;99.90;;;;;;5049608;28;20079;-53
2022/05/12 05:10:13;;;;;;;12.10;2.50;;;9.50;99.90;;;;;;5050368;28;20080;-52
2022/05/12 05:12:40;;;;;;;36.30;5.95;;;9.50;99.90;;;;;;5049481;28;20049;-54
2022/05/12 05:15:08;;;;;;;11.98;2.15;;;9.60;99.90;;;;;;5049213;28;20041;-54
2022/05/12 05:17:36;;;;;;;9.43;2.10;;;9.60;99.90;;;;;;5050069;28;20448;-56
2022/05/12 05:20:07;;;;;;;9.23;2.42;;;9.60;99.90;;;;;;5049950;28;20122;-55
2022/05/12 05:22:34;;;;;;;20.27;3.90;;;9.70;99.90;;;;;;5050408;28;20083;-54
2022/05/12 05:25:01;;;;;;;11.30;2.30;;;9.80;99.90;;;;;;5049553;28;20111;-55
2022/05/12 05:27:28;;;;;;;13.95;2.70;;;9.80;99.90;;;;;;5048363;28;20059;-56
2022/05/12 05:29:54;;;;;;;14.27;2.50;;;9.90;99.90;;;;;;5049766;28;20448;-56
2022/05/12 05:32:21;;;;;;;17.10;3.67;;;9.90;99.90;;;;;;5049734;28;20048;-53
2022/05/12 05:34:48;;;;;;;16.38;3.08;;;10.00;99.90;;;;;;5048996;28;20037;-59
2022/05/12 05:37:15;;;;;;;19.20;2.75;;;10.00;99.90;;;;;;5049069;28;20080;-55
2022/05/12 05:39:42;;;;;;;19.58;2.83;;;10.10;99.90;;;;;;5049531;28;20041;-58
2022/05/12 05:42:11;;;;;;;19.88;3.47;;;10.10;99.90;;;;;;5049257;28;20131;-52
2022/05/12 05:44:38;;;;;;;14.98;4.28;;;10.20;99.90;;;;;;5047708;28;20045;-54
2022/05/12 05:47:05;;;;;;;10.68;2.80;;;10.30;99.90;;;;;;5049584;28;20084;-54
2022/05/12 05:49:33;;;;;;;11.27;2.20;;;10.30;99.90;;;;;;5048271;28;20045;-54
2022/05/12 05:54:45;;;;;;;13.52;2.53;;;10.30;99.90;;;;;;5045581;28;20055;-52
2022/05/12 05:57:12;;;;;;;9.70;2.38;;;10.40;99.90;;;;;;5048558;28;20056;-56
2022/05/12 05:59:39;;;;;;;13.27;2.60;;;10.50;99.90;;;;;;5048573;28;20087;-59
2022/05/12 06:02:06;;;;;;;15.27;2.50;;;10.50;99.90;;;;;;5049125;28;20049;-54
2022/05/12 06:04:33;;;;;;;17.90;3.50;;;10.50;99.90;;;;;;5048374;28;20048;-56
2022/05/12 06:06:59;;;;;;;17.00;3.45;;;10.50;99.90;;;;;;5048221;28;20052;-53
2022/05/12 06:09:28;;;;;;;23.02;3.53;;;10.60;99.90;;;;;;5046089;28;20715;-54
2022/05/12 06:11:54;;;;;;;15.27;3.50;;;10.60;99.90;;;;;;5046931;28;20048;-54
2022/05/12 06:14:21;;;;;;;11.10;3.72;;;10.60;99.90;;;;;;5046552;28;20571;-53
2022/05/12 06:16:48;;;;;;;14.15;2.92;;;10.70;99.90;;;;;;5047656;28;20559;-54
2022/05/12 06:19:17;;;;;;;13.40;3.70;;;10.80;99.90;;;;;;5047891;28;20519;-53
2022/05/12 06:21:44;;;;;;;15.52;2.72;;;10.90;99.90;;;;;;5048310;28;20132;-55
2022/05/12 06:24:10;;;;;;;13.15;3.20;;;11.00;99.90;;;;;;5047876;28;20479;-53
2022/05/12 06:26:38;;;;;;;8.93;2.58;;;11.00;99.90;;;;;;5047295;28;20132;-54
2022/05/12 06:29:04;;;;;;;16.73;3.03;;;11.00;99.90;;;;;;5047642;28;20076;-51
2022/05/12 06:31:32;;;;;;;20.42;4.38;;;11.10;99.90;;;;;;5047692;28;20092;-53
2022/05/12 06:34:00;;;;;;;16.02;3.55;;;11.20;99.90;;;;;;5044957;28;20519;-56
2022/05/12 06:36:28;;;;;;;12.88;2.85;;;11.30;99.90;;;;;;5039621;28;20075;-55
2022/05/12 06:38:55;;;;;;;22.17;4.85;;;11.30;99.90;;;;;;5042206;28;20073;-55
2022/05/12 06:41:24;;;;;;;14.52;3.03;;;11.40;99.90;;;;;;5045577;28;20045;-56
2022/05/12 06:43:51;;;;;;;12.80;2.70;;;11.40;99.90;;;;;;5046398;28;20068;-57
2022/05/12 06:46:18;;;;;;;15.57;2.95;;;11.40;99.90;;;;;;5046208;28;20065;-56
2022/05/12 06:48:49;;;;;;;13.88;2.65;;;11.40;99.90;;;;;;5046641;28;20083;-55
2022/05/12 06:51:16;;;;;;;11.35;2.55;;;11.50;99.90;;;;;;5045744;28;20147;-54
2022/05/12 06:53:43;;;;;;;11.40;2.88;;;11.50;99.90;;;;;;5046181;28;20131;-55
2022/05/12 06:56:15;;;;;;;13.90;3.15;;;11.50;99.90;;;;;;5044021;28;20096;-56
2022/05/12 06:58:42;;;;;;;17.25;2.97;;;11.60;99.90;;;;;;5046445;28;20044;-55
2022/05/12 07:01:09;;;;;;;6.88;2.80;;;11.70;99.90;;;;;;5045863;28;20052;-54
2022/05/12 07:03:37;;;;;;;13.05;2.45;;;11.60;99.90;;;;;;5044707;28;20044;-54
2022/05/12 07:06:06;;;;;;;20.10;2.63;;;11.60;99.90;;;;;;5043958;28;20053;-54
2022/05/12 07:08:33;;;;;;;12.43;2.53;;;11.60;99.90;;;;;;5045921;28;20084;-53
2022/05/12 07:10:59;;;;;;;22.30;3.65;;;11.70;99.90;;;;;;5043255;28;20148;-53
2022/05/12 07:13:26;;;;;;;16.20;2.72;;;11.70;99.90;;;;;;5044913;28;20127;-55
2022/05/12 07:15:54;;;;;;;12.48;3.05;;;11.80;99.90;;;;;;5045767;28;20078;-59
2022/05/12 07:18:20;;;;;;;14.75;3.00;;;11.90;99.90;;;;;;5046291;28;20049;-53
2022/05/12 07:26:40;;;;;;;13.65;2.63;;;12.10;99.90;;;;;;5040765;28;20079;-55
2022/05/12 07:29:16;;;;;;;35.25;3.47;;;12.20;99.90;;;;;;5045153;28;20140;-56
2022/05/12 07:31:43;;;;;;;7.78;2.42;;;12.20;99.90;;;;;;5046703;28;20083;-57
2022/05/12 07:34:10;;;;;;;19.05;4.10;;;12.30;99.90;;;;;;5046358;28;20045;-54
2022/05/12 07:36:40;;;;;;;11.73;3.03;;;12.30;99.90;;;;;;5045806;28;20045;-54
2022/05/12 07:39:13;;;;;;;13.27;2.80;;;12.30;99.90;;;;;;5045154;28;20041;-55
2022/05/12 07:41:43;;;;;;;17.85;3.08;;;12.30;99.90;;;;;;5045030;28;20059;-53
2022/05/12 07:44:14;;;;;;;9.00;2.55;;;12.40;99.90;;;;;;5044884;28;20199;-51
2022/05/12 07:46:41;;;;;;;12.52;2.72;;;12.40;99.90;;;;;;5045268;28;20049;-51
2022/05/12 07:49:08;;;;;;;19.85;3.72;;;12.50;99.90;;;;;;5044781;28;20047;-55
2022/05/12 07:51:35;;;;;;;15.80;3.28;;;12.60;99.90;;;;;;5045134;28;20051;-54
2022/05/12 07:54:02;;;;;;;20.58;3.47;;;12.70;99.90;;;;;;5027259;28;20084;-58
2022/05/12 07:56:29;;;;;;;13.73;2.97;;;12.80;99.90;;;;;;5045145;28;20103;-54
2022/05/12 07:58:57;;;;;;;10.38;3.40;;;12.90;99.90;;;;;;5044702;28;20480;-54
2022/05/12 08:01:24;;;;;;;11.18;5.05;;;12.90;99.90;;;;;;5044140;28;20056;-55
2022/05/12 08:03:51;;;;;;;12.07;2.42;;;13.00;99.90;;;;;;5043122;28;20124;-54
2022/05/12 08:06:18;;;;;;;7.13;1.88;;;13.10;99.90;;;;;;5045349;28;20085;-55
2022/05/12 08:08:48;;;;;;;8.55;2.70;;;13.10;99.90;;;;;;5045033;28;20072;-53
2022/05/12 08:11:15;;;;;;;6.63;2.30;;;13.20;99.90;;;;;;5045113;28;20049;-50
2022/05/12 08:13:47;;;;;;;10.13;3.25;;;13.30;99.90;;;;;;5044425;28;20145;-53
2022/05/12 08:16:17;;;;;;;13.70;3.30;;;13.40;99.90;;;;;;5045150;28;20539;-55
2022/05/12 08:18:46;;;;;;;9.48;2.72;;;13.50;99.90;;;;;;5043632;28;20550;-56
2022/05/12 08:21:13;;;;;;;8.98;2.25;;;13.60;99.90;;;;;;5043701;28;20045;-54
2022/05/12 08:23:40;;;;;;;17.58;5.68;;;13.60;99.90;;;;;;5043784;28;20048;-56
2022/05/12 08:26:07;;;;;;;8.73;2.25;;;13.70;99.90;;;;;;5047487;28;20059;-54
2022/05/12 08:28:34;;;;;;;14.18;1.95;;;13.70;99.90;;;;;;5047408;28;20128;-54
2022/05/12 08:31:01;;;;;;;6.93;1.77;;;13.80;99.90;;;;;;5047697;28;20107;-54
2022/05/12 08:33:35;;;;;;;;;;;13.90;99.90;;;;;;5049027;28;20040;-50
2022/05/12 08:36:02;;;;;;;10.25;1.63;;;14.00;99.90;;;;;;5047401;28;20186;-54
2022/05/12 08:38:28;;;;;;;10.00;2.13;;;14.10;99.90;;;;;;5049403;28;20045;-55
2022/05/12 08:41:16;;;;;;;10.27;2.28;;;14.10;99.90;;;;;;5048182;28;20041;-54
2022/05/12 08:43:43;;;;;;;8.32;2.00;;;14.20;99.90;;;;;;5047962;28;20543;-53
2022/05/12 08:46:19;;;;;;;6.70;1.58;;;14.20;99.90;;;;;;5046600;28;20045;-55
2022/05/12 08:48:46;;;;;;;13.10;2.08;;;14.20;99.90;;;;;;5016818;28;20451;-53
2022/05/12 08:51:18;;;;;;;5.93;1.95;;;14.30;99.90;;;;;;5039558;28;20076;-51
2022/05/12 08:53:55;;;;;;;6.22;1.85;;;14.20;99.90;;;;;;5046368;28;20559;-55
2022/05/12 08:56:22;;;;;;;9.63;1.95;;;14.30;99.90;;;;;;5058691;28;20048;-55
2022/05/12 08:58:51;;;;;;;10.65;1.27;;;14.40;99.90;;;;;;5049147;28;20080;-56
2022/05/12 09:01:36;;;;;;;8.65;1.95;;;14.40;99.90;;;;;;5026735;28;20041;-52
2022/05/12 09:04:19;;;;;;;8.43;1.63;;;14.40;99.90;;;;;;5053816;28;20049;-55
2022/05/12 09:06:51;;;;;;;11.93;2.17;;;14.40;99.90;;;;;;5047904;28;20048;-54
2022/05/12 09:09:42;;;;;;;12.82;2.60;;;14.60;99.90;;;;;;5049180;28;20048;-53
2022/05/12 09:12:21;;;;;;;8.55;1.58;;;14.60;99.90;;;;;;5047851;28;20515;-55
2022/05/12 09:15:00;;;;;;;11.27;2.45;;;14.70;99.90;;;;;;5047186;28;20178;-54
2022/05/12 09:18:01;;;;;;;14.45;2.38;;;14.70;99.90;;;;;;5046562;28;20095;-53
2022/05/12 09:20:30;;;;;;;7.82;1.83;;;14.80;99.90;;;;;;5047486;28;20479;-50
2022/05/12 09:22:58;;;;;;;5.90;1.33;;;14.90;99.90;;;;;;5046172;28;20384;-55
2022/05/12 09:25:38;;;;;;;10.00;1.85;;;14.90;99.90;;;;;;5049379;28;20107;-53
2022/05/12 09:28:25;;;;;;;9.98;2.28;;;15.00;99.90;;;;;;5047321;28;20500;-51
2022/05/12 09:30:52;;;;;;;7.25;1.52;;;15.10;99.90;;;;;;5049126;28;20127;-52
2022/05/12 09:33:28;;;;;;;8.18;1.88;;;15.30;99.90;;;;;;5049900;28;20130;-54
2022/05/12 09:36:00;;;;;;;5.47;1.40;;;15.30;99.60;;;;;;5047099;28;20128;-55
2022/05/12 09:38:27;;;;;;;4.43;0.90;;;15.30;98.60;;;;;;5045018;28;20505;-53
2022/05/12 09:40:54;;;;;;;12.20;1.95;;;15.30;97.80;;;;;;5047926;28;20064;-53
2022/05/12 09:43:28;;;;;;;9.50;1.65;;;15.40;99.90;;;;;;5048117;28;20056;-55
2022/05/12 09:46:08;;;;;;;9.27;1.83;;;15.50;99.40;;;;;;5048119;28;20512;-53
2022/05/12 09:48:36;;;;;;;10.30;1.65;;;15.60;97.00;;;;;;5047183;28;20112;-56
2022/05/12 09:51:34;;;;;;;6.13;1.65;;;15.80;98.20;;;;;;5046707;28;20049;-54
2022/05/12 09:54:28;;;;;;;11.52;2.90;;;15.90;95.20;;;;;;5040683;28;20041;-55
2022/05/12 09:57:16;;;;;;;3.38;1.27;;;15.80;95.40;;;;;;5047701;28;20044;-55
2022/05/12 09:59:50;;;;;;;6.63;1.10;;;15.80;99.00;;;;;;5046954;28;20124;-53
2022/05/12 10:08:22;;;;;;;8.65;1.23;;;15.50;94.10;;;;;;5045130;28;20075;-56
2022/05/12 10:10:54;;;;;;;3.75;1.50;;;15.40;92.60;;;;;;5046270;28;20080;-54
2022/05/12 10:13:46;;;;;;;7.10;1.27;;;15.40;94.00;;;;;;5046430;28;20136;-56
2022/05/12 10:16:15;;;;;;;7.10;1.48;;;15.60;93.20;;;;;;5046647;28;20084;-55
2022/05/12 10:18:47;;;;;;;4.28;1.10;;;15.70;94.60;;;;;;5045751;28;20051;-54
2022/05/12 10:21:26;;;;;;;7.00;1.17;;;15.70;94.50;;;;;;5046299;28;20045;-55
2022/05/12 10:24:09;;;;;;;8.35;1.52;;;15.70;92.80;;;;;;5045997;28;20049;-54
2022/05/12 10:26:48;;;;;;;10.63;1.63;;;15.50;92.50;;;;;;5046144;28;20416;-52
2022/05/12 10:29:25;;;;;;;4.28;1.02;;;15.60;94.10;;;;;;5043470;28;20128;-54
2022/05/12 10:31:55;;;;;;;7.78;1.38;;;15.50;93.00;;;;;;5045878;28;20132;-54
2022/05/12 10:34:34;;;;;;;3.67;1.00;;;15.40;90.20;;;;;;5047202;28;20072;-55
2022/05/12 10:37:07;;;;;;;6.40;1.50;;;15.50;89.20;;;;;;5046963;28;20140;-55
2022/05/12 10:39:37;;;;;;;6.43;1.63;;;15.60;90.30;;;;;;5029393;28;20471;-55
2022/05/12 10:42:22;;;;;;;6.28;1.45;;;15.80;90.90;;;;;;5046108;28;20048;-55
2022/05/12 10:45:07;;;;;;;5.47;1.30;;;16.30;90.20;;;;;;5044301;28;20052;-55
2022/05/12 10:47:50;;;;;;;7.00;1.50;;;16.50;91.00;;;;;;5044612;28;20091;-53
2022/05/12 10:50:27;;;;;;;12.30;1.70;;;16.60;90.70;;;;;;5043773;28;20116;-53
2022/05/12 10:53:21;;;;;;;8.35;1.13;;;16.60;90.60;;;;;;5029070;28;20122;-53
2022/05/12 10:56:13;;;;;;;5.25;0.70;;;16.80;87.90;;;;;;5046232;28;20106;-54
2022/05/12 10:58:43;;;;;;;3.47;1.10;;;17.00;85.10;;;;;;5046019;28;20059;-51
2022/05/12 11:01:32;;;;;;;11.95;1.98;;;17.00;86.10;;;;;;5029106;28;20072;-53
2022/05/12 11:04:08;;;;;;;4.65;1.05;;;17.10;85.00;;;;;;5040704;28;20389;-53
2022/05/12 11:07:06;;;;;;;7.70;1.35;;;17.20;88.30;;;;;;5045147;28;20037;-54
2022/05/12 11:09:43;;;;;;;5.43;1.02;;;17.30;84.80;;;;;;5044660;28;20464;-57
2022/05/12 11:12:33;;;;;;;6.40;1.33;;;17.30;87.70;;;;;;5038453;28;20136;-52
2022/05/12 11:15:10;;;;;;;10.32;1.60;;;17.20;83.40;;;;;;5045716;28;20564;-56
2022/05/12 11:17:42;;;;;;;5.28;1.92;;;17.10;82.80;;;;;;5027959;28;20056;-54
2022/05/12 11:20:23;;;;;;;4.78;1.33;;;17.10;84.10;;;;;;5038165;28;20517;-55
2022/05/12 11:23:13;;;;;;;8.85;1.20;;;17.10;82.20;;;;;;5040119;28;20041;-55
2022/05/12 11:25:46;;;;;;;4.82;1.02;;;17.10;81.00;;;;;;5039621;28;20089;-54
2022/05/12 11:31:26;;;;;;;5.95;1.13;;;17.40;80.90;;;;;;5030893;28;20087;-56
2022/05/12 11:33:56;;;;;;;7.60;2.55;;;17.60;80.50;;;;;;5043871;28;20503;-55
2022/05/12 11:36:45;;;;;;;5.40;1.20;;;17.60;83.80;;;;;;5027761;28;20049;-54
2022/05/12 11:39:23;;;;;;;3.33;1.08;;;17.40;79.00;;;;;;5044807;28;20045;-51
2022/05/12 11:42:17;;;;;;;4.35;0.98;;;17.30;81.30;;;;;;5043336;28;20136;-55
2022/05/12 11:45:01;;;;;;;10.30;1.75;;;17.20;81.60;;;;;;5046178;28;20136;-56
2022/05/12 11:48:13;;;;;;;8.70;1.90;;;17.10;85.00;;;;;;5045654;28;20045;-52
2022/05/12 11:50:49;;;;;;;6.30;1.60;;;17.20;85.50;;;;;;5041598;28;20464;-57
2022/05/12 11:53:24;;;;;;;4.60;1.13;;;17.10;88.50;;;;;;5021512;28;20045;-54
2022/05/12 11:56:03;;;;;;;9.00;1.63;;;17.10;83.80;;;;;;5045938;28;20122;-54
2022/05/12 11:58:43;;;;;;;8.75;1.40;;;17.10;85.50;;;;;;5046480;28;20069;-55
2022/05/12 12:01:22;;;;;;;4.60;1.10;;;17.00;83.50;;;;;;5020788;28;20135;-57
2022/05/12 12:04:03;;;;;;;11.15;1.83;;;17.10;84.30;;;;;;5043612;28;20045;-56
2022/05/12 12:06:51;;;;;;;7.55;1.58;;;17.20;86.80;;;;;;5044540;28;20055;-51
2022/05/12 12:09:36;;;;;;;5.45;1.50;;;17.20;82.20;;;;;;4694989;28;10001301;-55
2022/05/12 12:12:05;;;;;;;9.18;1.30;;;17.30;82.30;;;;;;5041028;28;20085;-56
2022/05/12 12:14:47;;;;;;;8.45;1.50;;;17.60;86.40;;;;;;5043577;28;20230;-52
2022/05/12 12:17:35;;;;;;;5.75;1.10;;;17.40;81.10;;;;;;5042791;28;20037;-56
2022/05/12 12:20:18;;;;;;;5.93;1.35;;;17.40;82.60;;;;;;5042031;28;20084;-61
2022/05/12 12:22:46;;;;;;;7.30;1.30;;;17.40;84.70;;;;;;5036985;28;20410;-56
2022/05/12 12:25:35;;;;;;;5.97;1.30;;;17.50;84.60;;;;;;5041361;28;20053;-56
2022/05/12 12:28:26;;;;;;;6.57;1.35;;;17.40;84.60;;;;;;5036228;28;20088;-54
2022/05/12 12:30:53;;;;;;;6.82;1.45;;;17.30;80.60;;;;;;5035992;28;20780;-52
2022/05/12 12:33:25;;;;;;;8.80;1.25;;;17.30;85.60;;;;;;5043050;28;20092;-54
2022/05/12 12:35:55;;;;;;;7.03;1.35;;;17.40;86.20;;;;;;5035809;28;20045;-54
2022/05/12 12:38:44;;;;;;;8.73;1.40;;;17.50;85.40;;;;;;5042919;28;20101;-55
2022/05/12 12:41:11;;;;;;;9.32;1.77;;;17.50;81.20;;;;;;5041318;28;20501;-51
2022/05/12 12:43:43;;;;;;;4.90;1.92;;;17.50;82.10;;;;;;5041196;28;20136;-55
2022/05/12 12:46:12;;;;;;;9.20;1.40;;;17.60;82.40;;;;;;5042041;28;20055;-53
2022/05/12 12:48:45;;;;;;;12.20;2.53;;;17.90;82.20;;;;;;5041292;28;20048;-57
2022/05/12 12:51:12;;;;;;;6.63;1.15;;;18.20;80.90;;;;;;5038416;28;20149;-55
2022/05/12 12:56:35;;;;;;;5.32;1.42;;;18.00;81.20;;;;;;5037531;28;20055;-52
2022/05/12 12:59:18;;;;;;;4.10;0.98;;;17.90;79.90;;;;;;5040319;28;20053;-55
2022/05/12 13:02:01;;;;;;;8.98;1.30;;;18.10;77.80;;;;;;5024992;28;20472;-54
2022/05/12 13:04:33;;;;;;;4.85;1.42;;;18.30;77.70;;;;;;5038236;28;20064;-53
2022/05/12 13:07:04;;;;;;;9.45;2.05;;;18.60;77.20;;;;;;5042449;28;20496;-54
2022/05/12 13:09:41;;;;;;;3.78;1.40;;;18.60;78.40;;;;;;5041969;28;20079;-53
2022/05/12 13:12:22;;;;;;;4.55;1.30;;;18.70;81.00;;;;;;5045984;28;20103;-52
2022/05/12 13:14:50;;;;;;;2.85;0.90;;;18.70;75.90;;;;;;5046009;28;20511;-54
2022/05/12 13:17:24;;;;;;;3.15;1.08;;;18.80;79.20;;;;;;5046584;28;20052;-53
2022/05/12 13:19:51;;;;;;;5.35;1.20;;;18.80;77.10;;;;;;5045344;28;20061;-54
2022/05/12 13:22:28;;;;;;;3.65;1.30;;;18.70;76.90;;;;;;5046243;28;20107;-52
2022/05/12 13:24:56;;;;;;;7.18;1.23;;;18.60;75.40;;;;;;5044828;28;20041;-53
2022/05/12 13:27:25;;;;;;;6.75;1.75;;;18.50;78.70;;;;;;5044321;28;20087;-55
2022/05/12 13:29:52;;;;;;;5.88;1.83;;;18.80;78.30;;;;;;5044803;28;20076;-55
2022/05/12 13:32:38;;;;;;;7.03;1.45;;;18.90;75.90;;;;;;5044943;28;20095;-55